sensor_id;sensor_type;location;lat;lon;timestamp;pressure;altitude;pressure_sealevel;temperature;humidity
62436;BME280;48480;50.252;18.848;2022-11-24T00:00:47;97745.14;;;2.94;73.84
62436;BME280;48480;50.252;18.848;2022-11-24T00:03:12;97752.16;;;2.96;73.80
62436;BME280;48480;50.252;18.848;2022-11-24T00:05:37;97753.20;;;2.98;73.75
62436;BME280;48480;50.252;18.848;2022-11-24T00:08:03;97750.40;;;3.01;73.62
62436;BME280;48480;50.252;18.848;2022-11-24T00:10:29;97752.31;;;3.02;73.69
62436;BME280;48480;50.252;18.848;2022-11-24T00:12:54;97756.04;;;3.00;73.82
62436;BME280;48480;50.252;18.848;2022-11-24T00:15:20;97759.84;;;3.00;73.79
62436;BME280;48480;50.252;18.848;2022-11-24T00:17:45;97765.42;;;3.00;73.88
62436;BME280;48480;50.252;18.848;2022-11-24T00:20:10;97767.07;;;2.99;73.87
62436;BME280;48480;50.252;18.848;2022-11-24T00:22:36;97774.30;;;2.98;73.79
62436;BME280;48480;50.252;18.848;2022-11-24T00:25:01;97760.39;;;2.90;73.79
62436;BME280;48480;50.252;18.848;2022-11-24T00:27:27;97770.48;;;2.97;74.01
62436;BME280;48480;50.252;18.848;2022-11-24T00:29:52;97777.45;;;3.00;73.78
62436;BME280;48480;50.252;18.848;2022-11-24T00:32:17;97775.30;;;3.02;73.80
62436;BME280;48480;50.252;18.848;2022-11-24T00:34:43;97778.18;;;3.01;73.76
62436;BME280;48480;50.252;18.848;2022-11-24T00:37:08;97780.00;;;2.98;73.62
62436;BME280;48480;50.252;18.848;2022-11-24T00:39:34;97785.92;;;2.96;73.70
62436;BME280;48480;50.252;18.848;2022-11-24T00:41:59;97791.58;;;2.96;73.91
62436;BME280;48480;50.252;18.848;2022-11-24T00:44:25;97790.33;;;2.95;73.98
62436;BME280;48480;50.252;18.848;2022-11-24T00:46:50;97787.70;;;2.98;74.07
62436;BME280;48480;50.252;18.848;2022-11-24T00:49:16;97789.08;;;3.03;74.01
62436;BME280;48480;50.252;18.848;2022-11-24T00:51:41;97793.40;;;3.04;73.86
62436;BME280;48480;50.252;18.848;2022-11-24T00:54:06;97791.52;;;3.07;73.75
62436;BME280;48480;50.252;18.848;2022-11-24T00:56:32;97790.69;;;3.06;73.58
62436;BME280;48480;50.252;18.848;2022-11-24T00:58:59;97790.71;;;3.07;73.70
62436;BME280;48480;50.252;18.848;2022-11-24T01:01:26;97794.26;;;3.09;73.76
62436;BME280;48480;50.252;18.848;2022-11-24T01:03:53;97797.02;;;3.08;73.76
62436;BME280;48480;50.252;18.848;2022-11-24T01:06:24;97799.61;;;3.08;73.83
62436;BME280;48480;50.252;18.848;2022-11-24T01:08:51;97792.92;;;3.05;73.71
62436;BME280;48480;50.252;18.848;2022-11-24T01:11:25;97801.19;;;3.15;73.63
62436;BME280;48480;50.252;18.848;2022-11-24T01:13:53;97804.00;;;3.19;73.59
62436;BME280;48480;50.252;18.848;2022-11-24T01:16:24;97806.76;;;3.19;73.63
62436;BME280;48480;50.252;18.848;2022-11-24T01:18:50;97808.66;;;3.18;73.65
62436;BME280;48480;50.252;18.848;2022-11-24T01:21:16;97812.65;;;3.14;73.66
62436;BME280;48480;50.252;18.848;2022-11-24T01:23:42;97809.31;;;3.13;73.71
62436;BME280;48480;50.252;18.848;2022-11-24T01:26:10;97801.88;;;3.04;73.76
62436;BME280;48480;50.252;18.848;2022-11-24T01:28:36;97808.84;;;3.03;73.84
62436;BME280;48480;50.252;18.848;2022-11-24T01:31:04;97808.94;;;2.99;74.07
62436;BME280;48480;50.252;18.848;2022-11-24T01:33:31;97811.66;;;2.97;74.11
62436;BME280;48480;50.252;18.848;2022-11-24T01:35:58;97811.48;;;2.99;74.35
62436;BME280;48480;50.252;18.848;2022-11-24T01:38:25;97811.83;;;3.00;74.29
62436;BME280;48480;50.252;18.848;2022-11-24T01:41:06;97810.63;;;3.04;74.29
62436;BME280;48480;50.252;18.848;2022-11-24T01:43:33;97811.98;;;3.06;74.39
62436;BME280;48480;50.252;18.848;2022-11-24T01:46:18;97815.44;;;3.10;74.36
62436;BME280;48480;50.252;18.848;2022-11-24T01:51:35;97812.09;;;3.16;74.33
62436;BME280;48480;50.252;18.848;2022-11-24T01:54:06;97809.27;;;3.17;74.42
62436;BME280;48480;50.252;18.848;2022-11-24T01:56:34;97811.29;;;3.22;74.30
62436;BME280;48480;50.252;18.848;2022-11-24T01:59:02;97809.98;;;3.21;74.38
62436;BME280;48480;50.252;18.848;2022-11-24T02:01:30;97806.53;;;3.21;74.43
62436;BME280;48480;50.252;18.848;2022-11-24T02:03:56;97810.98;;;3.20;74.47
62436;BME280;48480;50.252;18.848;2022-11-24T02:06:26;97814.21;;;3.21;74.50
62436;BME280;48480;50.252;18.848;2022-11-24T02:08:59;97814.75;;;3.20;74.37
62436;BME280;48480;50.252;18.848;2022-11-24T02:11:29;97814.20;;;3.17;74.62
62436;BME280;48480;50.252;18.848;2022-11-24T02:13:56;97819.19;;;3.17;74.80
62436;BME280;48480;50.252;18.848;2022-11-24T02:16:21;97808.80;;;3.12;74.89
62436;BME280;48480;50.252;18.848;2022-11-24T02:18:47;97815.29;;;3.13;75.06
62436;BME280;48480;50.252;18.848;2022-11-24T02:21:14;97815.99;;;3.13;74.95
62436;BME280;48480;50.252;18.848;2022-11-24T02:23:57;97822.09;;;3.14;75.16
62436;BME280;48480;50.252;18.848;2022-11-24T02:26:42;97819.21;;;3.15;75.18
62436;BME280;48480;50.252;18.848;2022-11-24T02:29:10;97819.39;;;3.17;75.11
62436;BME280;48480;50.252;18.848;2022-11-24T02:31:38;97822.92;;;3.19;75.18
62436;BME280;48480;50.252;18.848;2022-11-24T02:34:05;97820.98;;;3.18;75.19
62436;BME280;48480;50.252;18.848;2022-11-24T02:36:31;97822.01;;;3.16;75.21
62436;BME280;48480;50.252;18.848;2022-11-24T02:38:56;97816.14;;;3.14;75.59
62436;BME280;48480;50.252;18.848;2022-11-24T02:41:23;97814.14;;;3.12;75.69
62436;BME280;48480;50.252;18.848;2022-11-24T02:43:55;97815.27;;;3.11;75.88
62436;BME280;48480;50.252;18.848;2022-11-24T02:46:21;97815.30;;;3.09;76.03
62436;BME280;48480;50.252;18.848;2022-11-24T02:48:47;97817.06;;;3.07;76.20
62436;BME280;48480;50.252;18.848;2022-11-24T02:51:12;97816.88;;;3.05;76.34
62436;BME280;48480;50.252;18.848;2022-11-24T02:53:38;97817.24;;;3.05;76.47
62436;BME280;48480;50.252;18.848;2022-11-24T02:56:03;97816.87;;;3.05;76.46
62436;BME280;48480;50.252;18.848;2022-11-24T02:58:29;97817.45;;;3.05;76.61
62436;BME280;48480;50.252;18.848;2022-11-24T03:00:54;97812.66;;;3.02;76.62
62436;BME280;48480;50.252;18.848;2022-11-24T03:03:21;97815.66;;;3.05;76.78
62436;BME280;48480;50.252;18.848;2022-11-24T03:05:47;97816.95;;;3.03;76.74
62436;BME280;48480;50.252;18.848;2022-11-24T03:08:12;97813.65;;;3.04;76.63
62436;BME280;48480;50.252;18.848;2022-11-24T03:10:38;97815.39;;;3.06;76.72
62436;BME280;48480;50.252;18.848;2022-11-24T03:13:03;97813.52;;;3.06;76.61
62436;BME280;48480;50.252;18.848;2022-11-24T03:15:29;97812.95;;;3.06;76.88
62436;BME280;48480;50.252;18.848;2022-11-24T03:17:55;97816.14;;;3.04;76.82
62436;BME280;48480;50.252;18.848;2022-11-24T03:20:21;97815.15;;;3.02;77.08
62436;BME280;48480;50.252;18.848;2022-11-24T03:22:46;97816.84;;;2.99;77.14
62436;BME280;48480;50.252;18.848;2022-11-24T03:25:12;97821.24;;;2.98;77.18
62436;BME280;48480;50.252;18.848;2022-11-24T03:27:37;97821.52;;;2.96;77.33
62436;BME280;48480;50.252;18.848;2022-11-24T03:30:03;97821.30;;;2.98;77.40
62436;BME280;48480;50.252;18.848;2022-11-24T03:32:29;97824.52;;;2.99;77.41
62436;BME280;48480;50.252;18.848;2022-11-24T03:34:54;97828.81;;;2.99;77.43
62436;BME280;48480;50.252;18.848;2022-11-24T03:37:19;97829.91;;;2.99;77.41
62436;BME280;48480;50.252;18.848;2022-11-24T03:39:45;97831.94;;;2.98;77.46
62436;BME280;48480;50.252;18.848;2022-11-24T03:42:10;97832.54;;;2.97;77.51
62436;BME280;48480;50.252;18.848;2022-11-24T03:44:36;97832.58;;;2.98;77.63
62436;BME280;48480;50.252;18.848;2022-11-24T03:47:01;97835.73;;;2.99;77.65
62436;BME280;48480;50.252;18.848;2022-11-24T03:49:26;97830.52;;;2.97;77.59
62436;BME280;48480;50.252;18.848;2022-11-24T03:51:52;97838.02;;;3.05;77.30
62436;BME280;48480;50.252;18.848;2022-11-24T03:54:17;97841.27;;;3.08;77.01
62436;BME280;48480;50.252;18.848;2022-11-24T03:56:43;97846.66;;;3.09;77.09
62436;BME280;48480;50.252;18.848;2022-11-24T03:59:08;97849.72;;;3.11;77.15
62436;BME280;48480;50.252;18.848;2022-11-24T04:01:34;97850.71;;;3.09;77.05
62436;BME280;48480;50.252;18.848;2022-11-24T04:03:59;97851.95;;;3.07;77.16
62436;BME280;48480;50.252;18.848;2022-11-24T04:06:25;97852.34;;;3.05;77.10
62436;BME280;48480;50.252;18.848;2022-11-24T04:08:50;97849.89;;;3.05;77.30
62436;BME280;48480;50.252;18.848;2022-11-24T04:11:16;97847.32;;;3.08;77.23
62436;BME280;48480;50.252;18.848;2022-11-24T04:14:14;97847.02;;;3.11;76.93
62436;BME280;48480;50.252;18.848;2022-11-24T04:16:39;97850.61;;;3.12;76.99
62436;BME280;48480;50.252;18.848;2022-11-24T04:19:05;97847.48;;;3.11;77.09
62436;BME280;48480;50.252;18.848;2022-11-24T04:21:31;97848.08;;;3.11;77.06
62436;BME280;48480;50.252;18.848;2022-11-24T04:23:56;97852.05;;;3.11;77.19
62436;BME280;48480;50.252;18.848;2022-11-24T04:26:22;97853.67;;;3.08;77.47
62436;BME280;48480;50.252;18.848;2022-11-24T04:28:47;97860.95;;;3.06;77.53
62436;BME280;48480;50.252;18.848;2022-11-24T04:31:13;97866.40;;;3.02;77.62
62436;BME280;48480;50.252;18.848;2022-11-24T04:33:38;97871.03;;;3.00;77.99
62436;BME280;48480;50.252;18.848;2022-11-24T04:36:04;97874.39;;;2.99;78.12
62436;BME280;48480;50.252;18.848;2022-11-24T04:38:29;97875.88;;;2.99;78.28
62436;BME280;48480;50.252;18.848;2022-11-24T04:41:00;97875.88;;;2.97;78.31
62436;BME280;48480;50.252;18.848;2022-11-24T04:43:25;97879.08;;;2.95;78.26
62436;BME280;48480;50.252;18.848;2022-11-24T04:45:50;97880.54;;;2.92;78.48
62436;BME280;48480;50.252;18.848;2022-11-24T04:48:16;97883.94;;;2.91;78.69
62436;BME280;48480;50.252;18.848;2022-11-24T04:50:41;97887.74;;;2.90;78.60
62436;BME280;48480;50.252;18.848;2022-11-24T04:53:09;97890.41;;;2.89;79.00
62436;BME280;48480;50.252;18.848;2022-11-24T04:55:37;97892.94;;;2.91;78.92
62436;BME280;48480;50.252;18.848;2022-11-24T04:58:03;97894.04;;;2.94;78.89
62436;BME280;48480;50.252;18.848;2022-11-24T05:00:28;97899.36;;;2.97;79.02
62436;BME280;48480;50.252;18.848;2022-11-24T05:02:54;97898.59;;;2.99;78.91
62436;BME280;48480;50.252;18.848;2022-11-24T05:05:19;97894.80;;;2.98;78.91
62436;BME280;48480;50.252;18.848;2022-11-24T05:07:46;97888.91;;;2.92;78.87
62436;BME280;48480;50.252;18.848;2022-11-24T05:10:12;97885.20;;;2.91;79.04
62436;BME280;48480;50.252;18.848;2022-11-24T05:12:57;97888.77;;;2.90;79.07
62436;BME280;48480;50.252;18.848;2022-11-24T05:15:24;97895.09;;;2.89;79.05
62436;BME280;48480;50.252;18.848;2022-11-24T05:17:50;97897.27;;;2.88;79.24
62436;BME280;48480;50.252;18.848;2022-11-24T05:20:16;97903.32;;;2.86;79.35
62436;BME280;48480;50.252;18.848;2022-11-24T05:22:42;97901.89;;;2.87;79.32
62436;BME280;48480;50.252;18.848;2022-11-24T05:25:08;97899.05;;;2.77;79.23
62436;BME280;48480;50.252;18.848;2022-11-24T05:27:33;97907.50;;;2.80;79.40
62436;BME280;48480;50.252;18.848;2022-11-24T05:29:59;97909.21;;;2.80;79.47
62436;BME280;48480;50.252;18.848;2022-11-24T05:32:24;97910.85;;;2.79;79.48
62436;BME280;48480;50.252;18.848;2022-11-24T05:34:52;97910.35;;;2.81;79.60
62436;BME280;48480;50.252;18.848;2022-11-24T05:37:19;97909.26;;;2.86;79.61
62436;BME280;48480;50.252;18.848;2022-11-24T05:39:45;97910.29;;;2.90;79.41
62436;BME280;48480;50.252;18.848;2022-11-24T05:42:10;97912.59;;;2.94;79.24
62436;BME280;48480;50.252;18.848;2022-11-24T05:44:56;97917.58;;;2.98;79.19
62436;BME280;48480;50.252;18.848;2022-11-24T05:47:22;97919.81;;;2.97;79.07
62436;BME280;48480;50.252;18.848;2022-11-24T05:49:47;97921.61;;;2.96;79.01
62436;BME280;48480;50.252;18.848;2022-11-24T05:52:14;97922.46;;;2.97;79.03
62436;BME280;48480;50.252;18.848;2022-11-24T05:54:40;97924.08;;;3.00;78.84
62436;BME280;48480;50.252;18.848;2022-11-24T05:57:05;97924.91;;;3.02;78.90
62436;BME280;48480;50.252;18.848;2022-11-24T05:59:31;97928.04;;;3.02;78.81
62436;BME280;48480;50.252;18.848;2022-11-24T06:01:56;97933.98;;;3.01;78.74
62436;BME280;48480;50.252;18.848;2022-11-24T06:04:22;97937.80;;;3.00;78.93
62436;BME280;48480;50.252;18.848;2022-11-24T06:06:47;97942.20;;;3.00;78.98
62436;BME280;48480;50.252;18.848;2022-11-24T06:09:13;97906.92;;;2.73;78.95
62436;BME280;48480;50.252;18.848;2022-11-24T06:11:38;97949.11;;;2.98;79.15
62436;BME280;48480;50.252;18.848;2022-11-24T06:14:04;97943.71;;;2.91;79.01
62436;BME280;48480;50.252;18.848;2022-11-24T06:16:29;97956.80;;;2.92;79.23
62436;BME280;48480;50.252;18.848;2022-11-24T06:18:55;97955.35;;;2.92;79.45
62436;BME280;48480;50.252;18.848;2022-11-24T06:21:23;97951.47;;;2.86;79.44
62436;BME280;48480;50.252;18.848;2022-11-24T06:23:48;97962.65;;;2.87;79.31
62436;BME280;48480;50.252;18.848;2022-11-24T06:26:14;97965.44;;;2.83;79.55
62436;BME280;48480;50.252;18.848;2022-11-24T06:28:42;97967.68;;;2.80;79.60
62436;BME280;48480;50.252;18.848;2022-11-24T06:31:08;97972.61;;;2.79;79.65
62436;BME280;48480;50.252;18.848;2022-11-24T06:33:35;97976.66;;;2.77;79.75
62436;BME280;48480;50.252;18.848;2022-11-24T06:36:06;97977.04;;;2.76;80.05
62436;BME280;48480;50.252;18.848;2022-11-24T06:38:35;97978.20;;;2.77;80.23
62436;BME280;48480;50.252;18.848;2022-11-24T06:41:05;97977.21;;;2.81;80.20
62436;BME280;48480;50.252;18.848;2022-11-24T06:43:34;97980.34;;;2.83;79.95
62436;BME280;48480;50.252;18.848;2022-11-24T06:46:00;97979.13;;;2.81;80.03
62436;BME280;48480;50.252;18.848;2022-11-24T06:48:26;97982.20;;;2.80;80.18
62436;BME280;48480;50.252;18.848;2022-11-24T06:50:52;97982.56;;;2.82;80.30
62436;BME280;48480;50.252;18.848;2022-11-24T06:53:19;97986.89;;;2.83;80.30
62436;BME280;48480;50.252;18.848;2022-11-24T06:55:45;97986.98;;;2.86;80.19
62436;BME280;48480;50.252;18.848;2022-11-24T06:58:11;97985.77;;;2.87;80.16
62436;BME280;48480;50.252;18.848;2022-11-24T07:00:38;97991.16;;;2.87;80.01
62436;BME280;48480;50.252;18.848;2022-11-24T07:03:03;97991.90;;;2.86;79.99
62436;BME280;48480;50.252;18.848;2022-11-24T07:05:29;97990.52;;;2.81;79.88
62436;BME280;48480;50.252;18.848;2022-11-24T07:07:54;97990.80;;;2.78;80.16
62436;BME280;48480;50.252;18.848;2022-11-24T07:10:20;97990.64;;;2.78;80.42
62436;BME280;48480;50.252;18.848;2022-11-24T07:12:45;97989.44;;;2.74;80.24
62436;BME280;48480;50.252;18.848;2022-11-24T07:15:11;98001.36;;;2.73;80.39
62436;BME280;48480;50.252;18.848;2022-11-24T07:17:38;97982.61;;;2.58;80.25
62436;BME280;48480;50.252;18.848;2022-11-24T07:20:06;98005.30;;;2.63;80.55
62436;BME280;48480;50.252;18.848;2022-11-24T07:22:32;98002.98;;;2.59;80.82
62436;BME280;48480;50.252;18.848;2022-11-24T07:24:58;98006.98;;;2.58;81.17
62436;BME280;48480;50.252;18.848;2022-11-24T07:27:23;98007.39;;;2.58;81.12
62436;BME280;48480;50.252;18.848;2022-11-24T07:29:49;98008.08;;;2.59;81.02
62436;BME280;48480;50.252;18.848;2022-11-24T07:32:14;98007.20;;;2.56;80.84
62436;BME280;48480;50.252;18.848;2022-11-24T07:34:40;98007.69;;;2.51;80.99
62436;BME280;48480;50.252;18.848;2022-11-24T07:37:06;98013.48;;;2.45;81.31
62436;BME280;48480;50.252;18.848;2022-11-24T07:39:31;98019.06;;;2.44;81.40
62436;BME280;48480;50.252;18.848;2022-11-24T07:41:59;98022.49;;;2.47;81.56
62436;BME280;48480;50.252;18.848;2022-11-24T07:44:25;98021.32;;;2.49;81.36
62436;BME280;48480;50.252;18.848;2022-11-24T07:46:51;98023.09;;;2.45;81.40
62436;BME280;48480;50.252;18.848;2022-11-24T07:49:18;98026.64;;;2.42;81.54
62436;BME280;48480;50.252;18.848;2022-11-24T07:51:44;98027.39;;;2.42;81.62
62436;BME280;48480;50.252;18.848;2022-11-24T07:54:10;98026.70;;;2.43;81.69
62436;BME280;48480;50.252;18.848;2022-11-24T07:56:38;98026.79;;;2.46;82.07
62436;BME280;48480;50.252;18.848;2022-11-24T07:59:05;98017.39;;;2.40;82.25
62436;BME280;48480;50.252;18.848;2022-11-24T08:01:30;98028.73;;;2.55;82.21
62436;BME280;48480;50.252;18.848;2022-11-24T08:14:58;98037.30;;;2.60;81.96
62436;BME280;48480;50.252;18.848;2022-11-24T08:17:30;98049.08;;;2.56;81.77
62436;BME280;48480;50.252;18.848;2022-11-24T08:19:56;98049.16;;;2.50;82.00
62436;BME280;48480;50.252;18.848;2022-11-24T08:22:22;98050.66;;;2.45;82.16
62436;BME280;48480;50.252;18.848;2022-11-24T08:24:47;98053.59;;;2.43;82.00
62436;BME280;48480;50.252;18.848;2022-11-24T08:27:17;98059.21;;;2.38;82.10
62436;BME280;48480;50.252;18.848;2022-11-24T08:29:44;98062.78;;;2.35;82.29
62436;BME280;48480;50.252;18.848;2022-11-24T08:32:10;98062.68;;;2.31;82.17
62436;BME280;48480;50.252;18.848;2022-11-24T08:34:36;98063.96;;;2.31;82.43
62436;BME280;48480;50.252;18.848;2022-11-24T08:37:05;98056.09;;;2.25;82.50
62436;BME280;48480;50.252;18.848;2022-11-24T08:39:32;98065.80;;;2.31;82.41
62436;BME280;48480;50.252;18.848;2022-11-24T08:41:58;98069.83;;;2.32;82.38
62436;BME280;48480;50.252;18.848;2022-11-24T08:44:24;98071.36;;;2.33;82.35
62436;BME280;48480;50.252;18.848;2022-11-24T08:46:53;98070.67;;;2.34;82.36
62436;BME280;48480;50.252;18.848;2022-11-24T08:49:18;98074.52;;;2.34;82.32
62436;BME280;48480;50.252;18.848;2022-11-24T08:51:46;98078.96;;;2.38;82.32
62436;BME280;48480;50.252;18.848;2022-11-24T08:54:13;98079.81;;;2.39;82.06
62436;BME280;48480;50.252;18.848;2022-11-24T08:56:40;98079.48;;;2.40;82.06
62436;BME280;48480;50.252;18.848;2022-11-24T08:59:06;98081.23;;;2.41;81.93
62436;BME280;48480;50.252;18.848;2022-11-24T09:01:34;98081.65;;;2.44;81.77
62436;BME280;48480;50.252;18.848;2022-11-24T09:03:59;98081.91;;;2.43;81.49
62436;BME280;48480;50.252;18.848;2022-11-24T09:06:28;98080.97;;;2.40;81.53
62436;BME280;48480;50.252;18.848;2022-11-24T09:08:57;98054.05;;;2.18;81.53
62436;BME280;48480;50.252;18.848;2022-11-24T09:11:24;98082.80;;;2.34;81.70
62436;BME280;48480;50.252;18.848;2022-11-24T09:13:50;98082.48;;;2.33;81.63
62436;BME280;48480;50.252;18.848;2022-11-24T09:16:22;98082.23;;;2.29;81.70
62436;BME280;48480;50.252;18.848;2022-11-24T09:18:57;98086.15;;;2.28;81.77
62436;BME280;48480;50.252;18.848;2022-11-24T09:21:23;98086.85;;;2.25;81.73
62436;BME280;48480;50.252;18.848;2022-11-24T09:23:50;98060.08;;;2.04;81.85
62436;BME280;48480;50.252;18.848;2022-11-24T09:26:23;98089.92;;;2.22;82.06
62436;BME280;48480;50.252;18.848;2022-11-24T09:28:57;98091.18;;;2.26;82.15
62436;BME280;48480;50.252;18.848;2022-11-24T09:31:41;98088.05;;;2.30;82.12
62436;BME280;48480;50.252;18.848;2022-11-24T09:34:11;98089.61;;;2.36;82.10
62436;BME280;48480;50.252;18.848;2022-11-24T09:39:18;98087.42;;;2.41;81.95
62436;BME280;48480;50.252;18.848;2022-11-24T09:55:04;98089.36;;;2.33;82.10
62436;BME280;48480;50.252;18.848;2022-11-24T09:58:08;98091.80;;;2.30;82.09
62436;BME280;48480;50.252;18.848;2022-11-24T10:03:30;98062.46;;;2.05;82.08
62436;BME280;48480;50.252;18.848;2022-11-24T10:05:58;98091.93;;;2.25;82.37
62436;BME280;48480;50.252;18.848;2022-11-24T10:27:48;98098.74;;;2.30;82.42
62436;BME280;48480;50.252;18.848;2022-11-24T10:30:19;98099.70;;;2.26;82.51
62436;BME280;48480;50.252;18.848;2022-11-24T10:35:46;98098.64;;;2.27;82.86
62436;BME280;48480;50.252;18.848;2022-11-24T10:38:28;98100.98;;;2.29;82.83
62436;BME280;48480;50.252;18.848;2022-11-24T10:41:00;98104.61;;;2.31;82.76
62436;BME280;48480;50.252;18.848;2022-11-24T10:43:28;98106.61;;;2.34;82.67
62436;BME280;48480;50.252;18.848;2022-11-24T10:46:17;98107.92;;;2.37;82.61
62436;BME280;48480;50.252;18.848;2022-11-24T10:48:50;98104.39;;;2.35;82.57
62436;BME280;48480;50.252;18.848;2022-11-24T10:54:16;98097.03;;;2.34;83.05
62436;BME280;48480;50.252;18.848;2022-11-24T10:56:48;98098.56;;;2.39;83.30
62436;BME280;48480;50.252;18.848;2022-11-24T11:01:53;98101.36;;;2.41;83.10
62436;BME280;48480;50.252;18.848;2022-11-24T11:04:32;98098.86;;;2.42;83.23
62436;BME280;48480;50.252;18.848;2022-11-24T11:09:39;98099.66;;;2.53;83.89
62436;BME280;48480;50.252;18.848;2022-11-24T11:12:10;98098.62;;;2.63;84.21
62436;BME280;48480;50.252;18.848;2022-11-24T11:14:36;98100.41;;;2.73;84.13
62436;BME280;48480;50.252;18.848;2022-11-24T11:17:23;98101.66;;;2.82;83.93
62436;BME280;48480;50.252;18.848;2022-11-24T11:19:49;98102.29;;;2.90;83.58
62436;BME280;48480;50.252;18.848;2022-11-24T11:22:26;98102.34;;;2.94;83.48
62436;BME280;48480;50.252;18.848;2022-11-24T11:27:35;98102.88;;;3.09;83.56
62436;BME280;48480;50.252;18.848;2022-11-24T11:30:24;98103.22;;;3.14;83.31
62436;BME280;48480;50.252;18.848;2022-11-24T11:32:56;98104.41;;;3.20;83.09
62436;BME280;48480;50.252;18.848;2022-11-24T11:35:27;98102.38;;;3.22;82.69
62436;BME280;48480;50.252;18.848;2022-11-24T11:37:57;98106.81;;;3.25;82.54
62436;BME280;48480;50.252;18.848;2022-11-24T11:40:28;98104.52;;;3.28;82.66
62436;BME280;48480;50.252;18.848;2022-11-24T11:43:20;98105.33;;;3.34;82.52
62436;BME280;48480;50.252;18.848;2022-11-24T11:46:04;98108.30;;;3.30;82.03
62436;BME280;48480;50.252;18.848;2022-11-24T11:48:35;98106.49;;;3.24;82.09
62436;BME280;48480;50.252;18.848;2022-11-24T11:51:25;98106.65;;;3.25;82.35
62436;BME280;48480;50.252;18.848;2022-11-24T11:57:09;98109.09;;;3.40;82.52
62436;BME280;48480;50.252;18.848;2022-11-24T12:00:04;98117.61;;;3.44;81.97
62436;BME280;48480;50.252;18.848;2022-11-24T12:03:04;98111.11;;;3.38;81.61
62436;BME280;48480;50.252;18.848;2022-11-24T12:11:03;98115.44;;;3.49;81.43
62436;BME280;48480;50.252;18.848;2022-11-24T12:16:12;98115.14;;;3.46;81.74
62436;BME280;48480;50.252;18.848;2022-11-24T12:19:02;98117.98;;;3.50;82.06
62436;BME280;48480;50.252;18.848;2022-11-24T12:24:47;98120.30;;;3.51;81.71
62436;BME280;48480;50.252;18.848;2022-11-24T12:27:30;98120.55;;;3.46;81.74
62436;BME280;48480;50.252;18.848;2022-11-24T12:38:08;98121.19;;;3.45;81.55
62436;BME280;48480;50.252;18.848;2022-11-24T12:43:38;98122.32;;;3.58;81.19
62436;BME280;48480;50.252;18.848;2022-11-24T12:46:25;98126.83;;;3.51;81.34
62436;BME280;48480;50.252;18.848;2022-11-24T12:51:35;98126.65;;;3.40;81.43
62436;BME280;48480;50.252;18.848;2022-11-24T12:54:03;98134.10;;;3.33;81.63
62436;BME280;48480;50.252;18.848;2022-11-24T12:59:19;98136.52;;;3.32;81.79
62436;BME280;48480;50.252;18.848;2022-11-24T13:02:19;98143.75;;;3.28;82.04
62436;BME280;48480;50.252;18.848;2022-11-24T13:04:59;98144.20;;;3.23;81.95
62436;BME280;48480;50.252;18.848;2022-11-24T13:07:54;98145.73;;;3.15;81.91
62436;BME280;48480;50.252;18.848;2022-11-24T13:13:01;98142.82;;;3.04;82.57
62436;BME280;48480;50.252;18.848;2022-11-24T13:21:45;98150.64;;;3.08;82.62
62436;BME280;48480;50.252;18.848;2022-11-24T13:37:17;98175.29;;;3.20;82.69
62436;BME280;48480;50.252;18.848;2022-11-24T14:04:14;98198.14;;;3.36;82.98
62436;BME280;48480;50.252;18.848;2022-11-24T14:09:35;98202.25;;;3.34;82.94
62436;BME280;48480;50.252;18.848;2022-11-24T14:14:40;98211.44;;;3.40;83.27
62436;BME280;48480;50.252;18.848;2022-11-24T14:19:39;98218.71;;;3.47;82.91
62436;BME280;48480;50.252;18.848;2022-11-24T14:22:13;98223.27;;;3.51;83.05
62436;BME280;48480;50.252;18.848;2022-11-24T14:24:39;98229.54;;;3.55;83.20
62436;BME280;48480;50.252;18.848;2022-11-24T14:27:14;98231.89;;;3.60;83.15
62436;BME280;48480;50.252;18.848;2022-11-24T14:29:54;98236.38;;;3.65;82.99
62436;BME280;48480;50.252;18.848;2022-11-24T14:32:20;98235.04;;;3.67;83.02
62436;BME280;48480;50.252;18.848;2022-11-24T14:34:47;98237.05;;;3.70;82.86
62436;BME280;48480;50.252;18.848;2022-11-24T14:37:12;98236.56;;;3.70;82.71
62436;BME280;48480;50.252;18.848;2022-11-24T14:39:41;98244.48;;;3.68;82.69
62436;BME280;48480;50.252;18.848;2022-11-24T14:44:44;98247.12;;;3.63;82.81
62436;BME280;48480;50.252;18.848;2022-11-24T14:47:31;98246.08;;;3.58;82.58
62436;BME280;48480;50.252;18.848;2022-11-24T14:50:10;98252.89;;;3.63;82.96
62436;BME280;48480;50.252;18.848;2022-11-24T14:52:43;98255.86;;;3.65;82.77
62436;BME280;48480;50.252;18.848;2022-11-24T14:55:31;98256.26;;;3.68;83.11
62436;BME280;48480;50.252;18.848;2022-11-24T14:57:58;98255.31;;;3.75;82.98
62436;BME280;48480;50.252;18.848;2022-11-24T15:00:32;98255.42;;;3.74;82.49
62436;BME280;48480;50.252;18.848;2022-11-24T15:05:53;98261.23;;;3.72;82.51
62436;BME280;48480;50.252;18.848;2022-11-24T15:08:21;98264.71;;;3.74;82.47
62436;BME280;48480;50.252;18.848;2022-11-24T15:10:47;98267.80;;;3.75;82.58
62436;BME280;48480;50.252;18.848;2022-11-24T15:13:26;98263.40;;;3.80;82.53
62436;BME280;48480;50.252;18.848;2022-11-24T15:15:58;98263.20;;;3.87;82.42
62436;BME280;48480;50.252;18.848;2022-11-24T15:18:41;98266.04;;;3.92;82.26
62436;BME280;48480;50.252;18.848;2022-11-24T15:21:08;98268.18;;;3.95;82.02
62436;BME280;48480;50.252;18.848;2022-11-24T15:23:37;98269.61;;;3.97;81.95
62436;BME280;48480;50.252;18.848;2022-11-24T15:28:35;98268.66;;;3.94;81.63
62436;BME280;48480;50.252;18.848;2022-11-24T15:31:05;98268.91;;;3.97;81.61
62436;BME280;48480;50.252;18.848;2022-11-24T15:33:33;98276.27;;;4.00;81.65
62436;BME280;48480;50.252;18.848;2022-11-24T15:35:58;98279.11;;;4.03;81.57
62436;BME280;48480;50.252;18.848;2022-11-24T15:38:24;98284.30;;;4.05;81.57
62436;BME280;48480;50.252;18.848;2022-11-24T15:40:52;98287.14;;;4.09;81.42
62436;BME280;48480;50.252;18.848;2022-11-24T15:43:39;98291.84;;;4.13;81.17
62436;BME280;48480;50.252;18.848;2022-11-24T15:46:05;98291.63;;;4.14;81.13
62436;BME280;48480;50.252;18.848;2022-11-24T15:48:32;98295.65;;;4.15;81.18